createdAt,value
2022-12-29T00:00:20.893Z,5.00
2022-12-29T00:02:47.915Z,5.00
2022-12-29T00:05:14.919Z,5.00
2022-12-29T00:07:41.647Z,5.00
2022-12-29T00:10:08.715Z,5.00
2022-12-29T00:12:54.194Z,5.00
2022-12-29T00:15:39.473Z,5.00
2022-12-29T00:18:07.132Z,5.00
2022-12-29T00:20:56.208Z,4.90
2022-12-29T00:23:41.652Z,4.90
2022-12-29T00:26:36.587Z,4.90
2022-12-29T00:29:22.017Z,4.80
2022-12-29T00:32:07.280Z,4.80
2022-12-29T00:34:52.469Z,4.90
2022-12-29T00:37:39.193Z,4.80
2022-12-29T00:40:24.892Z,4.70
2022-12-29T00:43:10.290Z,4.70
2022-12-29T00:45:37.032Z,4.60
2022-12-29T00:48:03.926Z,4.60
2022-12-29T00:50:30.663Z,4.70
2022-12-29T00:52:57.439Z,4.70
2022-12-29T00:55:24.172Z,4.70
2022-12-29T00:57:50.943Z,4.70
2022-12-29T01:00:17.782Z,4.70
2022-12-29T01:02:45.123Z,4.60
2022-12-29T01:05:11.966Z,4.50
2022-12-29T01:07:38.702Z,4.50
2022-12-29T01:10:11.907Z,4.60
2022-12-29T01:12:41.892Z,4.60
2022-12-29T01:15:09.860Z,4.70
2022-12-29T01:17:36.738Z,4.70
2022-12-29T01:20:04.198Z,4.70
2022-12-29T01:22:30.987Z,4.70
2022-12-29T01:24:57.838Z,4.70
2022-12-29T01:27:24.703Z,4.70
2022-12-29T01:29:51.521Z,4.80
2022-12-29T01:32:18.372Z,4.80
2022-12-29T01:34:45.275Z,4.80
2022-12-29T01:37:12.481Z,4.80
2022-12-29T01:39:39.322Z,4.80
2022-12-29T01:42:06.175Z,4.80
2022-12-29T01:44:52.247Z,4.90
2022-12-29T01:47:39.895Z,5.00
2022-12-29T01:50:24.155Z,5.10
2022-12-29T01:53:31.420Z,5.20
2022-12-29T01:56:01.020Z,5.30
2022-12-29T01:58:30.754Z,5.40
2022-12-29T02:00:57.709Z,5.40
2022-12-29T02:03:25.193Z,5.50
2022-12-29T02:06:09.402Z,5.60
2022-12-29T02:08:36.174Z,5.70
2022-12-29T02:11:03.033Z,5.70
2022-12-29T02:13:29.933Z,5.80
2022-12-29T02:16:26.314Z,5.80
2022-12-29T02:19:31.916Z,5.80
2022-12-29T02:22:24.073Z,5.80
2022-12-29T02:25:09.301Z,5.80
2022-12-29T02:28:06.477Z,5.70
2022-12-29T02:31:01.496Z,5.70
2022-12-29T02:33:59.875Z,5.70
2022-12-29T02:37:05.330Z,5.70
2022-12-29T02:39:42.241Z,5.70
2022-12-29T02:42:19.314Z,5.70
2022-12-29T02:45:06.471Z,5.70
2022-12-29T02:47:56.591Z,5.80
2022-12-29T02:50:34.580Z,5.90
2022-12-29T02:53:10.404Z,5.90
2022-12-29T02:55:37.147Z,6.00
2022-12-29T02:58:09.674Z,6.00
2022-12-29T03:00:39.180Z,6.10
2022-12-29T03:03:17.684Z,6.10
2022-12-29T03:06:00.256Z,6.10
2022-12-29T03:08:36.434Z,6.20
2022-12-29T03:11:29.176Z,6.20
2022-12-29T03:14:19.610Z,6.20
2022-12-29T03:16:48.775Z,6.20
2022-12-29T03:19:48.702Z,6.10
2022-12-29T03:22:28.411Z,6.20
2022-12-29T03:24:57.684Z,6.20
2022-12-29T03:27:49.408Z,6.20
2022-12-29T03:30:16.367Z,6.20
2022-12-29T03:32:49.834Z,6.30
2022-12-29T03:35:18.496Z,6.30
2022-12-29T03:38:05.781Z,6.30
2022-12-29T03:40:32.637Z,6.30
2022-12-29T03:42:59.470Z,6.30
2022-12-29T03:45:26.385Z,6.30
2022-12-29T03:47:53.785Z,6.30
2022-12-29T03:50:20.606Z,6.20
2022-12-29T03:52:47.426Z,6.20
2022-12-29T03:55:14.205Z,6.30
2022-12-29T03:57:41.392Z,6.30
2022-12-29T04:00:08.957Z,6.20
2022-12-29T04:02:35.874Z,6.10
2022-12-29T04:05:02.891Z,6.00
2022-12-29T04:07:29.715Z,5.90
2022-12-29T04:09:56.453Z,5.90
2022-12-29T04:12:23.232Z,5.90
2022-12-29T04:14:50.094Z,6.00
2022-12-29T04:17:16.883Z,6.00
2022-12-29T04:19:45.211Z,6.10
2022-12-29T04:22:12.700Z,6.20
2022-12-29T04:24:39.444Z,6.20
2022-12-29T04:27:06.364Z,6.10
2022-12-29T04:29:33.157Z,6.10
2022-12-29T04:32:00.886Z,6.10
2022-12-29T04:34:27.709Z,6.20
2022-12-29T04:36:54.703Z,6.20
2022-12-29T04:39:21.596Z,6.30
2022-12-29T04:41:48.420Z,6.40
2022-12-29T04:44:15.304Z,6.50
2022-12-29T04:46:42.120Z,6.50
2022-12-29T04:49:09.840Z,6.60
2022-12-29T04:51:36.774Z,6.60
2022-12-29T04:54:03.691Z,6.60
2022-12-29T04:56:30.465Z,6.60
2022-12-29T04:58:57.247Z,6.60
2022-12-29T05:01:24.089Z,6.60
2022-12-29T05:03:52.553Z,6.50
2022-12-29T05:06:19.442Z,6.50
2022-12-29T05:08:46.188Z,6.60
2022-12-29T05:11:12.980Z,6.60
2022-12-29T05:13:39.757Z,6.60
2022-12-29T05:16:06.851Z,6.70
2022-12-29T05:18:33.734Z,6.80
2022-12-29T05:21:00.529Z,6.80
2022-12-29T05:23:27.274Z,6.80
2022-12-29T05:25:54.114Z,6.70
2022-12-29T05:28:20.949Z,6.70
2022-12-29T05:30:51.389Z,6.70
2022-12-29T05:33:19.119Z,6.70
2022-12-29T05:35:46.043Z,6.70
2022-12-29T05:38:12.863Z,6.70
2022-12-29T05:40:39.712Z,6.70
2022-12-29T05:43:06.598Z,6.60
2022-12-29T05:45:34.562Z,6.60
2022-12-29T05:48:01.428Z,6.40
2022-12-29T05:50:28.319Z,6.30
2022-12-29T05:52:55.219Z,6.20
2022-12-29T05:55:22.022Z,6.20
2022-12-29T05:57:48.751Z,6.10
2022-12-29T06:00:15.910Z,6.00
2022-12-29T06:02:43.749Z,6.00
2022-12-29T06:05:10.658Z,6.00
2022-12-29T06:07:37.502Z,6.00
2022-12-29T06:10:05.835Z,6.00
2022-12-29T06:12:32.643Z,6.00
2022-12-29T06:14:59.426Z,6.10
2022-12-29T06:17:26.292Z,6.10
2022-12-29T06:19:53.150Z,6.20
2022-12-29T06:22:20.000Z,6.20
2022-12-29T06:24:46.968Z,6.10
2022-12-29T06:27:14.918Z,6.10
2022-12-29T06:29:41.931Z,6.10
2022-12-29T06:32:08.814Z,6.00
2022-12-29T06:34:35.643Z,6.00
2022-12-29T06:37:02.823Z,5.90
2022-12-29T06:39:29.598Z,5.90
2022-12-29T06:41:56.427Z,5.90
2022-12-29T06:44:23.327Z,5.90
2022-12-29T06:46:50.638Z,6.00
2022-12-29T06:49:17.687Z,6.00
2022-12-29T06:51:44.506Z,6.00
2022-12-29T06:54:11.298Z,6.10
2022-12-29T06:56:38.039Z,6.10
2022-12-29T06:59:04.957Z,6.20
2022-12-29T07:01:32.159Z,6.30
2022-12-29T07:03:59.022Z,6.30
2022-12-29T07:06:25.889Z,6.40
2022-12-29T07:08:56.080Z,6.70
2022-12-29T07:11:22.966Z,7.50
2022-12-29T07:13:49.958Z,8.60
2022-12-29T07:16:16.899Z,9.60
2022-12-29T07:18:44.067Z,10.60
2022-12-29T07:21:10.991Z,11.20
2022-12-29T07:23:37.863Z,11.80
2022-12-29T07:26:06.789Z,12.50
2022-12-29T07:28:33.806Z,13.00
2022-12-29T07:31:01.018Z,13.40
2022-12-29T07:33:29.850Z,13.80
2022-12-29T07:35:56.649Z,14.10
2022-12-29T07:38:23.476Z,14.50
2022-12-29T07:40:50.287Z,14.80
2022-12-29T07:43:17.142Z,15.10
2022-12-29T07:45:44.070Z,15.40
2022-12-29T07:48:10.950Z,15.70
2022-12-29T07:50:37.796Z,16.10
2022-12-29T07:53:04.732Z,16.30
2022-12-29T07:55:31.611Z,16.50
2022-12-29T07:57:58.411Z,16.80
2022-12-29T08:00:25.283Z,16.80
2022-12-29T08:02:52.056Z,17.00
2022-12-29T08:05:19.002Z,17.20
2022-12-29T08:07:46.231Z,17.40
2022-12-29T08:10:13.558Z,17.40
2022-12-29T08:12:40.662Z,17.70
2022-12-29T08:15:08.321Z,17.90
2022-12-29T08:17:35.352Z,18.30
2022-12-29T08:20:02.429Z,18.70
2022-12-29T08:22:29.321Z,19.00
2022-12-29T08:24:56.096Z,18.80
2022-12-29T08:27:23.045Z,19.00
2022-12-29T08:29:50.224Z,19.10
2022-12-29T08:32:17.022Z,19.00
2022-12-29T08:34:43.797Z,19.20
2022-12-29T08:37:10.603Z,19.10
2022-12-29T08:39:37.356Z,19.30
2022-12-29T08:42:04.238Z,19.60
2022-12-29T08:44:31.137Z,19.80
2022-12-29T08:46:58.017Z,20.20
2022-12-29T08:49:24.875Z,20.30
2022-12-29T08:51:51.780Z,20.70
2022-12-29T08:54:18.635Z,20.90
2022-12-29T08:56:46.096Z,21.40
2022-12-29T08:59:12.988Z,21.40
2022-12-29T09:01:41.602Z,21.40
2022-12-29T09:04:17.681Z,21.20
2022-12-29T09:06:45.872Z,21.40
2022-12-29T09:09:13.122Z,21.60
2022-12-29T09:11:39.894Z,21.70
2022-12-29T09:14:06.664Z,21.90
2022-12-29T09:16:33.535Z,22.10
2022-12-29T09:19:00.824Z,22.40
2022-12-29T09:21:27.603Z,22.40
2022-12-29T09:23:54.398Z,22.70
2022-12-29T09:26:21.292Z,22.90
2022-12-29T09:28:48.252Z,22.30
2022-12-29T09:31:15.057Z,21.50
2022-12-29T09:33:41.913Z,21.60
2022-12-29T09:36:09.644Z,21.80
2022-12-29T09:38:36.676Z,22.40
2022-12-29T09:41:19.912Z,22.80
2022-12-29T09:44:07.827Z,23.40
2022-12-29T09:46:40.828Z,24.10
2022-12-29T09:49:32.020Z,24.50
2022-12-29T09:52:03.626Z,24.80
2022-12-29T09:54:57.960Z,24.80
2022-12-29T09:57:44.713Z,25.20
2022-12-29T10:00:17.775Z,25.50
2022-12-29T10:02:58.943Z,25.70
2022-12-29T10:05:40.353Z,25.80
2022-12-29T10:08:17.405Z,25.50
2022-12-29T10:10:59.508Z,24.60
2022-12-29T10:13:32.474Z,23.50
2022-12-29T10:16:03.894Z,22.70
2022-12-29T10:18:41.152Z,22.10
2022-12-29T10:21:46.340Z,21.50
2022-12-29T10:24:13.286Z,20.90
2022-12-29T10:26:44.563Z,20.60
2022-12-29T10:29:17.113Z,20.60
2022-12-29T10:32:00.641Z,20.40
2022-12-29T10:34:43.670Z,20.30
2022-12-29T10:37:19.089Z,20.20
2022-12-29T10:39:53.153Z,20.00
2022-12-29T10:42:37.862Z,19.70
2022-12-29T10:45:05.654Z,19.40
2022-12-29T10:47:36.129Z,19.10
2022-12-29T10:50:03.810Z,19.00
2022-12-29T10:52:30.742Z,18.70
2022-12-29T10:55:01.160Z,18.60
2022-12-29T10:57:58.218Z,18.30
2022-12-29T11:00:25.389Z,18.20
2022-12-29T11:03:17.726Z,18.10
2022-12-29T11:05:47.559Z,18.10
2022-12-29T11:08:17.506Z,18.00
2022-12-29T11:10:45.059Z,18.00
2022-12-29T11:13:16.413Z,18.00
2022-12-29T11:15:47.857Z,18.00
2022-12-29T11:18:21.882Z,18.60
2022-12-29T11:20:49.408Z,19.50
2022-12-29T11:23:32.665Z,19.90
2022-12-29T11:26:11.368Z,19.70
2022-12-29T11:28:42.035Z,19.30
2022-12-29T11:31:08.786Z,18.90
2022-12-29T11:33:36.912Z,18.60
2022-12-29T11:36:04.625Z,18.50
2022-12-29T11:38:40.045Z,18.40
2022-12-29T11:41:06.819Z,18.70
2022-12-29T11:43:39.211Z,18.90
2022-12-29T11:46:06.235Z,19.00
2022-12-29T11:48:42.483Z,19.30
2022-12-29T11:51:09.382Z,19.90
2022-12-29T11:54:00.011Z,20.50
2022-12-29T11:56:40.751Z,20.80
2022-12-29T11:59:39.064Z,21.00
2022-12-29T12:02:18.689Z,20.90
2022-12-29T12:04:45.556Z,20.40
2022-12-29T12:07:18.082Z,19.70
2022-12-29T12:10:07.382Z,19.30
2022-12-29T12:12:57.582Z,18.90
2022-12-29T12:15:43.429Z,18.60
2022-12-29T12:18:50.973Z,18.70
2022-12-29T12:21:28.617Z,18.70
2022-12-29T12:24:01.241Z,18.70
2022-12-29T12:27:03.615Z,18.70
2022-12-29T12:29:57.706Z,18.70
2022-12-29T12:32:47.450Z,18.50
2022-12-29T12:38:25.149Z,18.30
2022-12-29T12:41:00.903Z,18.30
2022-12-29T12:43:37.868Z,18.30
2022-12-29T12:46:31.134Z,18.40
2022-12-29T12:49:16.813Z,18.60
2022-12-29T12:52:12.968Z,18.60
2022-12-29T12:55:05.402Z,18.60
2022-12-29T12:57:40.797Z,18.50
2022-12-29T13:00:18.907Z,18.40
2022-12-29T13:02:45.774Z,18.20
2022-12-29T13:05:27.103Z,18.20
2022-12-29T13:08:30.860Z,18.10
2022-12-29T13:11:08.413Z,18.10
2022-12-29T13:13:54.744Z,18.10
2022-12-29T13:16:37.029Z,18.20
2022-12-29T13:19:37.518Z,18.10
2022-12-29T13:22:07.661Z,17.90
2022-12-29T13:24:52.564Z,17.70
2022-12-29T13:27:47.414Z,17.60
2022-12-29T13:30:31.164Z,17.70
2022-12-29T13:33:00.963Z,17.60
2022-12-29T13:35:31.444Z,17.60
2022-12-29T13:38:23.124Z,17.60
2022-12-29T13:40:57.791Z,17.50
2022-12-29T13:43:24.770Z,17.50
2022-12-29T13:45:56.952Z,17.40
2022-12-29T13:48:26.010Z,17.20
2022-12-29T13:50:58.572Z,17.10
2022-12-29T13:53:44.058Z,17.10
2022-12-29T13:56:21.442Z,17.10
2022-12-29T13:58:53.442Z,17.00
2022-12-29T14:01:35.909Z,17.00
2022-12-29T14:04:04.836Z,16.90
2022-12-29T14:06:35.609Z,16.80
2022-12-29T14:09:04.075Z,16.70
2022-12-29T14:11:35.093Z,16.70
2022-12-29T14:14:21.964Z,16.60
2022-12-29T14:16:48.861Z,16.50
2022-12-29T14:19:32.625Z,16.40
2022-12-29T14:22:04.434Z,16.30
2022-12-29T14:24:34.051Z,16.20
2022-12-29T14:27:01.143Z,16.20
2022-12-29T14:29:30.991Z,16.10
2022-12-29T14:31:57.873Z,16.10
2022-12-29T14:34:31.748Z,16.00
2022-12-29T14:37:02.323Z,16.00
2022-12-29T14:39:42.551Z,15.90
2022-12-29T14:42:14.728Z,16.00
2022-12-29T14:45:02.148Z,15.90
2022-12-29T14:47:32.946Z,15.80
2022-12-29T14:50:06.408Z,15.70
2022-12-29T14:52:33.188Z,15.70
2022-12-29T14:55:18.249Z,15.60
2022-12-29T14:57:58.412Z,15.50
2022-12-29T15:00:28.357Z,15.50
2022-12-29T15:03:07.699Z,15.40
2022-12-29T15:05:50.810Z,15.40
2022-12-29T15:08:19.550Z,15.30
2022-12-29T15:10:58.156Z,15.20
2022-12-29T15:13:33.081Z,15.20
2022-12-29T15:15:59.889Z,15.20
2022-12-29T15:18:27.621Z,15.10
2022-12-29T15:20:56.692Z,15.10
2022-12-29T15:23:31.094Z,15.00
2022-12-29T15:26:02.657Z,15.00
2022-12-29T15:28:37.542Z,15.00
2022-12-29T15:31:05.990Z,15.00
2022-12-29T15:33:32.940Z,15.00
2022-12-29T15:36:04.400Z,15.00
2022-12-29T15:38:35.843Z,15.00
2022-12-29T15:41:13.190Z,14.90
2022-12-29T15:44:16.145Z,14.90
2022-12-29T15:46:43.056Z,14.90
2022-12-29T15:49:09.985Z,14.80
2022-12-29T15:51:38.709Z,14.80
2022-12-29T15:54:05.596Z,14.70
2022-12-29T15:56:32.850Z,14.60
2022-12-29T15:58:59.994Z,14.60
2022-12-29T16:01:32.090Z,14.60
2022-12-29T16:04:00.167Z,14.60
2022-12-29T16:06:37.988Z,14.60
2022-12-29T16:09:20.904Z,14.50
2022-12-29T16:11:59.171Z,14.50
2022-12-29T16:14:34.532Z,14.50
2022-12-29T16:17:03.830Z,14.50
2022-12-29T16:19:37.684Z,14.40
2022-12-29T16:22:05.929Z,14.40
2022-12-29T16:24:33.524Z,14.50
2022-12-29T16:27:19.283Z,14.40
2022-12-29T16:29:46.085Z,14.40
2022-12-29T16:32:29.838Z,14.40
2022-12-29T16:35:26.778Z,14.40
2022-12-29T16:38:16.445Z,14.40
2022-12-29T16:40:59.500Z,14.30
2022-12-29T16:43:26.319Z,14.30
2022-12-29T16:45:53.177Z,14.30
2022-12-29T16:48:25.279Z,14.30
2022-12-29T16:50:52.195Z,14.30
2022-12-29T16:53:29.805Z,14.20
2022-12-29T16:56:04.437Z,14.20
2022-12-29T16:58:32.859Z,14.20
2022-12-29T17:01:00.327Z,14.10
2022-12-29T17:03:40.070Z,14.10
2022-12-29T17:06:07.259Z,14.00
2022-12-29T17:08:43.895Z,14.00
2022-12-29T17:11:41.415Z,14.00
2022-12-29T17:14:40.174Z,14.00
2022-12-29T17:17:20.829Z,14.00
2022-12-29T17:19:55.531Z,13.90
2022-12-29T17:22:28.793Z,13.90
2022-12-29T17:24:56.945Z,13.90
2022-12-29T17:27:51.076Z,13.90
2022-12-29T17:30:20.102Z,13.90
2022-12-29T17:32:54.518Z,13.90
2022-12-29T17:35:22.115Z,13.90
2022-12-29T17:37:49.374Z,13.90
2022-12-29T17:40:43.726Z,13.90
2022-12-29T17:43:12.075Z,13.90
2022-12-29T17:45:38.915Z,13.90
2022-12-29T17:48:16.089Z,13.90
2022-12-29T17:50:42.957Z,13.90
2022-12-29T17:53:17.148Z,13.90
2022-12-29T17:55:43.922Z,13.90
2022-12-29T17:58:20.678Z,13.90
2022-12-29T18:00:48.564Z,13.90
2022-12-29T18:03:19.745Z,14.00
2022-12-29T18:05:46.641Z,14.00
2022-12-29T18:08:13.426Z,14.00
2022-12-29T18:10:40.244Z,13.90
2022-12-29T18:13:07.178Z,13.90
2022-12-29T18:15:35.541Z,13.90
2022-12-29T18:18:15.634Z,13.90
2022-12-29T18:20:43.179Z,13.80
2022-12-29T18:23:26.661Z,13.90
2022-12-29T18:26:00.927Z,13.90
2022-12-29T18:28:28.057Z,14.00
2022-12-29T18:30:56.324Z,14.10
2022-12-29T18:33:26.264Z,14.10
2022-12-29T18:35:58.913Z,14.10
2022-12-29T18:38:25.969Z,14.00
2022-12-29T18:40:52.789Z,14.00
2022-12-29T18:43:19.738Z,14.00
2022-12-29T18:45:46.728Z,14.00
2022-12-29T18:48:14.422Z,14.00
2022-12-29T18:50:41.246Z,14.10
2022-12-29T18:53:15.549Z,14.10
2022-12-29T18:55:42.471Z,14.10
2022-12-29T18:58:09.265Z,14.10
2022-12-29T19:00:36.079Z,14.20
2022-12-29T19:03:02.936Z,14.10
2022-12-29T19:05:31.691Z,14.10
2022-12-29T19:07:58.546Z,14.20
2022-12-29T19:10:25.475Z,14.20
2022-12-29T19:12:52.591Z,14.10
2022-12-29T19:15:28.382Z,14.20
2022-12-29T19:18:32.973Z,14.20
2022-12-29T19:20:43.297Z,14.20
2022-12-29T19:23:12.174Z,14.10
2022-12-29T19:25:39.407Z,14.10
2022-12-29T19:28:06.654Z,14.00
2022-12-29T19:30:34.839Z,14.00
2022-12-29T19:33:09.710Z,13.90
2022-12-29T19:35:36.978Z,13.90
2022-12-29T19:38:03.804Z,13.80
2022-12-29T19:40:30.683Z,13.80
2022-12-29T19:42:57.705Z,13.80
2022-12-29T19:45:24.613Z,13.80
2022-12-29T19:47:52.282Z,13.70
2022-12-29T19:50:19.174Z,13.70
2022-12-29T19:52:45.910Z,13.70
2022-12-29T19:55:15.422Z,13.70
2022-12-29T19:57:42.643Z,13.70
2022-12-29T20:00:10.385Z,13.80
2022-12-29T20:02:37.783Z,13.70
2022-12-29T20:05:05.236Z,13.60
2022-12-29T20:07:31.999Z,13.60
2022-12-29T20:09:58.812Z,13.60
2022-12-29T20:12:29.157Z,13.60
2022-12-29T20:14:56.835Z,13.50
2022-12-29T20:18:01.979Z,13.50
2022-12-29T20:20:10.932Z,13.50
2022-12-29T20:22:37.985Z,13.50
2022-12-29T20:25:43.005Z,13.50
2022-12-29T20:27:51.816Z,13.40
2022-12-29T20:30:19.408Z,13.40
2022-12-29T20:32:46.160Z,13.30
2022-12-29T20:35:13.027Z,13.30
2022-12-29T20:37:39.859Z,13.20
2022-12-29T20:40:08.711Z,13.20
2022-12-29T20:42:35.827Z,13.20
2022-12-29T20:45:02.619Z,13.20
2022-12-29T20:47:29.433Z,13.20
2022-12-29T20:49:56.350Z,13.20
2022-12-29T20:52:23.263Z,13.20
2022-12-29T20:54:50.049Z,13.20
2022-12-29T20:57:16.841Z,13.20
2022-12-29T20:59:43.653Z,13.20
2022-12-29T21:02:23.784Z,13.10
2022-12-29T21:05:22.681Z,13.20
2022-12-29T21:07:37.569Z,13.10
2022-12-29T21:10:04.670Z,13.10
2022-12-29T21:12:31.447Z,13.10
2022-12-29T21:14:58.315Z,13.00
2022-12-29T21:17:25.131Z,13.00
2022-12-29T21:19:52.168Z,13.00
2022-12-29T21:22:18.998Z,13.00
2022-12-29T21:24:45.829Z,13.00
2022-12-29T21:27:12.686Z,13.00
2022-12-29T21:29:39.501Z,13.10
2022-12-29T21:32:07.068Z,13.00
2022-12-29T21:34:34.961Z,13.00
2022-12-29T21:37:01.944Z,13.10
2022-12-29T21:39:28.770Z,13.00
2022-12-29T21:42:00.284Z,13.00
2022-12-29T21:44:46.429Z,13.00
2022-12-29T21:47:13.347Z,12.90
2022-12-29T21:49:40.118Z,12.90
2022-12-29T21:52:07.034Z,12.90
2022-12-29T21:54:52.338Z,12.90
2022-12-29T21:57:37.975Z,12.90
2022-12-29T22:00:24.393Z,12.80
2022-12-29T22:03:16.487Z,12.80
2022-12-29T22:06:05.910Z,12.90
2022-12-29T22:08:51.391Z,12.90
2022-12-29T22:11:36.714Z,12.90
2022-12-29T22:14:04.233Z,13.00
2022-12-29T22:16:31.151Z,13.00
2022-12-29T22:19:00.790Z,13.00
2022-12-29T22:21:27.619Z,13.00
2022-12-29T22:23:54.390Z,12.90
2022-12-29T22:26:21.677Z,12.90
2022-12-29T22:28:50.734Z,13.00
2022-12-29T22:31:29.148Z,12.90
2022-12-29T22:34:00.391Z,12.90
2022-12-29T22:36:27.458Z,12.90
2022-12-29T22:38:54.392Z,13.00
2022-12-29T22:41:21.422Z,13.10
2022-12-29T22:43:48.338Z,13.10
2022-12-29T22:46:15.187Z,13.10
2022-12-29T22:48:42.210Z,13.10
2022-12-29T22:51:09.549Z,13.10
2022-12-29T22:53:36.296Z,13.10
2022-12-29T22:56:04.093Z,13.10
2022-12-29T22:58:30.917Z,13.00
2022-12-29T23:00:57.651Z,13.00
2022-12-29T23:03:24.706Z,12.90
2022-12-29T23:06:01.978Z,12.90
2022-12-29T23:08:30.688Z,12.90
2022-12-29T23:10:57.457Z,12.90
2022-12-29T23:13:24.237Z,12.90
2022-12-29T23:15:51.138Z,12.90
2022-12-29T23:18:18.074Z,12.90
2022-12-29T23:20:45.108Z,12.80
2022-12-29T23:23:11.939Z,12.80
2022-12-29T23:25:39.076Z,12.80
2022-12-29T23:28:07.169Z,12.80
2022-12-29T23:30:34.028Z,12.70
2022-12-29T23:33:00.830Z,12.70
2022-12-29T23:35:27.681Z,12.70
2022-12-29T23:37:54.465Z,12.70
2022-12-29T23:40:21.226Z,12.70
2022-12-29T23:42:47.945Z,12.80
2022-12-29T23:45:14.860Z,12.80
2022-12-29T23:47:41.630Z,12.80
2022-12-29T23:50:08.872Z,12.70
2022-12-29T23:52:35.675Z,12.80
2022-12-29T23:55:02.781Z,12.80
2022-12-29T23:57:30.096Z,12.80
2022-12-29T23:59:56.893Z,12.70
